createdAt,value
2023-11-25T00:00:56.587Z,94754.59
2023-11-25T00:03:23.471Z,94745.03
2023-11-25T00:05:50.693Z,94748.53
2023-11-25T00:08:17.616Z,94729.03
2023-11-25T00:10:44.894Z,94749.09
2023-11-25T00:13:11.995Z,94732.97
2023-11-25T00:15:40.189Z,94731.94
2023-11-25T00:18:09.003Z,94725.31
2023-11-25T00:20:38.256Z,94721.56
2023-11-25T00:23:05.644Z,94733.50
2023-11-25T00:25:32.512Z,94723.94
2023-11-25T00:27:59.484Z,94729.78
2023-11-25T00:30:26.375Z,94731.97
2023-11-25T00:32:53.725Z,94737.75
2023-11-25T00:35:20.551Z,94726.13
2023-11-25T00:37:47.492Z,94719.78
2023-11-25T00:42:43.753Z,94742.75
2023-11-25T00:45:11.307Z,94737.25
2023-11-25T00:47:41.386Z,94727.72
2023-11-25T00:50:17.237Z,94736.69
2023-11-25T00:52:44.226Z,94731.94
2023-11-25T00:55:11.942Z,94740.41
2023-11-25T00:57:39.233Z,94746.72
2023-11-25T01:00:07.243Z,94752.50
2023-11-25T01:02:34.145Z,94747.16
2023-11-25T01:05:00.912Z,94731.66
2023-11-25T01:07:27.696Z,94745.38
2023-11-25T01:09:54.477Z,94732.19
2023-11-25T01:12:22.042Z,94745.41
2023-11-25T01:14:48.859Z,94737.19
2023-11-25T01:17:15.618Z,94736.16
2023-11-25T01:19:42.744Z,94735.91
2023-11-25T01:22:10.557Z,94733.00
2023-11-25T01:24:37.375Z,94728.50
2023-11-25T01:27:04.211Z,94731.16
2023-11-25T01:29:31.209Z,94724.03
2023-11-25T01:31:57.985Z,94731.41
2023-11-25T01:34:24.781Z,94737.25
2023-11-25T01:36:51.573Z,94722.34
2023-11-25T01:39:18.233Z,94710.75
2023-11-25T01:41:45.269Z,94717.09
2023-11-25T01:44:13.790Z,94720.03
2023-11-25T01:46:44.408Z,94716.59
2023-11-25T01:49:14.344Z,94722.13
2023-11-25T01:51:46.168Z,94709.72
2023-11-25T01:54:17.290Z,94695.91
2023-11-25T01:56:56.950Z,94705.50
2023-11-25T01:59:26.422Z,94696.78
2023-11-25T02:01:53.392Z,94698.91
2023-11-25T02:04:20.143Z,94688.59
2023-11-25T02:06:46.863Z,94676.88
2023-11-25T02:09:14.432Z,94684.13
2023-11-25T02:12:00.738Z,94686.50
2023-11-25T02:14:28.221Z,94679.09
2023-11-25T02:16:57.055Z,94668.22
2023-11-25T02:19:27.855Z,94666.16
2023-11-25T02:21:54.781Z,94673.31
2023-11-25T02:24:23.244Z,94692.31
2023-11-25T02:26:59.303Z,94701.84
2023-11-25T02:29:26.813Z,94715.03
2023-11-25T02:31:53.529Z,94714.53
2023-11-25T02:34:21.954Z,94711.09
2023-11-25T02:36:49.878Z,94713.50
2023-11-25T02:39:19.303Z,94709.25
2023-11-25T02:41:52.892Z,94713.72
2023-11-25T02:44:20.262Z,94709.78
2023-11-25T02:46:48.313Z,94696.06
2023-11-25T02:49:15.657Z,94698.69
2023-11-25T02:51:49.658Z,94704.47
2023-11-25T02:54:16.279Z,94698.94
2023-11-25T02:56:43.071Z,94699.22
2023-11-25T02:59:10.988Z,94696.03
2023-11-25T03:01:40.867Z,94680.19
2023-11-25T03:04:09.138Z,94684.91
2023-11-25T03:06:36.590Z,94692.34
2023-11-25T03:09:06.766Z,94699.72
2023-11-25T03:11:33.483Z,94705.00
2023-11-25T03:14:00.133Z,94731.41
2023-11-25T03:16:27.421Z,94730.91
2023-11-25T03:18:54.090Z,94749.94
2023-11-25T03:21:22.038Z,94791.56
2023-11-25T03:23:48.715Z,94794.22
2023-11-25T03:26:16.456Z,94807.31
2023-11-25T03:28:44.189Z,94821.00
2023-11-25T03:31:10.918Z,94830.97
2023-11-25T03:33:38.161Z,94840.75
2023-11-25T03:36:05.567Z,94860.59
2023-11-25T03:38:32.286Z,94861.09
2023-11-25T03:40:59.023Z,94881.94
2023-11-25T03:43:25.855Z,94887.88
2023-11-25T03:45:53.396Z,94898.44
2023-11-25T03:48:20.101Z,94902.88
2023-11-25T03:50:46.793Z,94902.28
2023-11-25T03:53:13.603Z,94905.53
2023-11-25T03:55:40.767Z,94907.63
2023-11-25T03:58:07.593Z,94907.56
2023-11-25T04:00:35.335Z,94925.50
2023-11-25T04:03:02.694Z,94922.63
2023-11-25T04:05:29.580Z,94937.09
2023-11-25T04:07:56.336Z,94935.22
2023-11-25T04:10:23.150Z,94932.94
2023-11-25T04:12:53.431Z,94938.16
2023-11-25T04:15:23.423Z,94944.91
2023-11-25T04:17:52.056Z,94932.56
2023-11-25T04:20:25.765Z,94935.63
2023-11-25T04:22:53.293Z,94943.50
2023-11-25T04:25:20.260Z,94953.91
2023-11-25T04:27:48.476Z,94955.47
2023-11-25T04:30:17.089Z,94958.09
2023-11-25T04:32:45.253Z,94969.69
2023-11-25T04:35:12.120Z,94972.03
2023-11-25T04:37:39.003Z,94986.19
2023-11-25T04:40:06.808Z,94980.56
2023-11-25T04:42:33.989Z,94990.53
2023-11-25T04:45:01.299Z,94981.78
2023-11-25T04:47:28.233Z,94995.72
2023-11-25T04:49:55.324Z,95019.88
2023-11-25T04:52:22.218Z,95026.06
2023-11-25T04:54:50.155Z,95030.59
2023-11-25T04:57:17.140Z,95032.94
2023-11-25T04:59:44.007Z,95051.88
2023-11-25T05:02:10.861Z,95054.56
2023-11-25T05:04:37.658Z,95061.94
2023-11-25T05:07:05.948Z,95072.47
2023-11-25T05:09:33.150Z,95084.59
2023-11-25T05:12:00.949Z,95075.72
2023-11-25T05:14:27.978Z,95090.97
2023-11-25T05:16:57.085Z,95106.78
2023-11-25T05:19:24.328Z,95112.91
2023-11-25T05:21:51.108Z,95108.31
2023-11-25T05:24:17.871Z,95122.56
2023-11-25T05:26:44.693Z,95127.78
2023-11-25T05:29:11.365Z,95136.63
2023-11-25T05:31:38.386Z,95151.94
2023-11-25T05:34:06.914Z,95137.34
2023-11-25T05:36:34.178Z,95145.50
2023-11-25T05:39:01.490Z,95159.94
2023-11-25T05:41:31.474Z,95170.56
2023-11-25T05:43:58.909Z,95181.59
2023-11-25T05:46:25.881Z,95177.09
2023-11-25T05:48:55.842Z,95184.09
2023-11-25T05:51:22.561Z,95190.53
2023-11-25T05:53:49.246Z,95185.56
2023-11-25T05:56:15.929Z,95189.16
2023-11-25T05:58:42.661Z,95185.44
2023-11-25T06:01:09.336Z,95191.66
2023-11-25T06:03:36.344Z,95204.75
2023-11-25T06:06:08.559Z,95207.38
2023-11-25T06:08:35.293Z,95204.19
2023-11-25T06:11:02.086Z,95212.25
2023-11-25T06:13:29.230Z,95227.09
2023-11-25T06:15:57.537Z,95230.13
2023-11-25T06:18:25.861Z,95233.63
2023-11-25T06:20:52.687Z,95226.44
2023-11-25T06:23:19.408Z,95236.91
2023-11-25T06:25:46.219Z,95240.50
2023-11-25T06:28:15.202Z,95241.00
2023-11-25T06:30:42.027Z,95240.34
2023-11-25T06:33:08.810Z,95243.22
2023-11-25T06:35:38.236Z,95246.72
2023-11-25T06:38:05.749Z,95253.03
2023-11-25T06:40:34.802Z,95252.72
2023-11-25T06:43:01.821Z,95251.91
2023-11-25T06:45:28.703Z,95260.63
2023-11-25T06:47:55.877Z,95250.06
2023-11-25T06:50:23.762Z,95256.63
2023-11-25T06:52:50.948Z,95263.56
2023-11-25T06:55:20.499Z,95270.66
2023-11-25T06:57:48.021Z,95271.19
2023-11-25T07:00:15.682Z,95264.88
2023-11-25T07:02:42.752Z,95265.69
2023-11-25T07:05:10.882Z,95270.13
2023-11-25T07:07:38.452Z,95277.72
2023-11-25T07:10:05.688Z,95279.41
2023-11-25T07:12:32.346Z,95277.50
2023-11-25T07:14:59.703Z,95271.38
2023-11-25T07:17:26.597Z,95267.38
2023-11-25T07:19:53.485Z,95264.63
2023-11-25T07:22:21.105Z,95269.88
2023-11-25T07:24:48.071Z,95268.00
2023-11-25T07:27:19.640Z,95281.03
2023-11-25T07:29:46.895Z,95261.66
2023-11-25T07:32:13.965Z,95257.31
2023-11-25T07:34:40.747Z,95263.41
2023-11-25T07:37:07.688Z,95267.63
2023-11-25T07:39:35.657Z,95255.41
2023-11-25T07:42:02.989Z,95271.72
2023-11-25T07:44:31.995Z,95275.09
2023-11-25T07:46:59.850Z,95269.59
2023-11-25T07:49:26.792Z,95269.25
2023-11-25T07:51:53.454Z,95271.75
2023-11-25T07:54:20.244Z,95267.00
2023-11-25T07:56:48.731Z,95284.44
2023-11-25T07:59:15.421Z,95281.13
2023-11-25T08:01:42.181Z,95296.53
2023-11-25T08:04:08.960Z,95303.56
2023-11-25T08:06:35.634Z,95298.28
2023-11-25T08:09:03.622Z,95303.22
2023-11-25T08:11:33.128Z,95314.56
2023-11-25T08:13:59.789Z,95312.16
2023-11-25T08:16:26.563Z,95311.19
2023-11-25T08:18:54.082Z,95316.34
2023-11-25T08:21:20.741Z,95322.31
2023-11-25T08:23:47.442Z,95319.16
2023-11-25T08:26:25.045Z,95318.41
2023-11-25T08:28:52.177Z,95333.41
2023-11-25T08:31:20.021Z,95324.38
2023-11-25T08:33:46.934Z,95325.59
2023-11-25T08:36:15.733Z,95332.09
2023-11-25T08:38:42.642Z,95326.84
2023-11-25T08:41:09.473Z,95319.44
2023-11-25T08:43:44.917Z,95313.31
2023-11-25T08:46:12.021Z,95311.91
2023-11-25T08:48:38.901Z,95312.50
2023-11-25T08:51:08.998Z,95319.22
2023-11-25T08:53:35.996Z,95316.63
2023-11-25T08:56:04.122Z,95324.06
2023-11-25T08:58:30.951Z,95318.09
2023-11-25T09:00:57.826Z,95319.28
2023-11-25T09:03:24.683Z,95332.25
2023-11-25T09:05:51.557Z,95335.59
2023-11-25T09:08:18.322Z,95342.09
2023-11-25T09:10:45.217Z,95344.03
2023-11-25T09:13:12.230Z,95340.94
2023-11-25T09:15:41.808Z,95344.00
2023-11-25T09:18:09.630Z,95354.63
2023-11-25T09:20:36.601Z,95353.44
2023-11-25T09:23:03.491Z,95356.97
2023-11-25T09:25:32.419Z,95359.25
2023-11-25T09:27:59.518Z,95361.00
2023-11-25T09:30:27.312Z,95372.28
2023-11-25T09:32:54.874Z,95365.94
2023-11-25T09:35:23.320Z,95368.09
2023-11-25T09:37:51.713Z,95369.81
2023-11-25T09:40:20.817Z,95367.25
2023-11-25T09:42:48.971Z,95367.50
2023-11-25T09:45:16.670Z,95370.38
2023-11-25T09:47:45.438Z,95373.22
2023-11-25T09:50:14.732Z,95372.09
2023-11-25T09:52:54.183Z,95379.16
2023-11-25T09:55:24.265Z,95372.75
2023-11-25T09:57:58.071Z,95375.00
2023-11-25T10:00:28.275Z,95364.09
2023-11-25T10:02:59.042Z,95362.44
2023-11-25T10:05:26.112Z,95355.91
2023-11-25T10:07:52.911Z,95350.91
2023-11-25T10:10:25.400Z,95361.47
2023-11-25T10:12:52.384Z,95351.19
2023-11-25T10:15:19.307Z,95358.31
2023-11-25T10:17:46.130Z,95356.16
2023-11-25T10:20:20.692Z,95363.84
2023-11-25T10:22:49.243Z,95375.72
2023-11-25T10:25:19.758Z,95378.41
2023-11-25T10:27:47.952Z,95375.25
2023-11-25T10:30:15.880Z,95372.34
2023-11-25T10:32:43.049Z,95371.63
2023-11-25T10:35:10.657Z,95366.03
2023-11-25T10:37:41.303Z,95370.78
2023-11-25T10:40:12.462Z,95378.19
2023-11-25T10:42:53.008Z,95368.59
2023-11-25T10:45:25.154Z,95368.06
2023-11-25T10:47:52.009Z,95380.22
2023-11-25T10:50:18.798Z,95388.09
2023-11-25T10:52:47.515Z,95377.56
2023-11-25T10:55:14.686Z,95375.97
2023-11-25T10:57:42.615Z,95366.88
2023-11-25T11:00:13.096Z,95373.59
2023-11-25T11:02:51.594Z,95366.28
2023-11-25T11:05:30.614Z,95362.28
2023-11-25T11:08:12.344Z,95359.50
2023-11-25T11:10:48.876Z,95356.78
2023-11-25T11:13:19.397Z,95352.16
2023-11-25T11:15:48.495Z,95355.50
2023-11-25T11:18:27.737Z,95358.78
2023-11-25T11:20:56.694Z,95361.69
2023-11-25T11:23:24.183Z,95352.00
2023-11-25T11:26:08.442Z,95363.09
2023-11-25T11:29:14.795Z,95359.47
2023-11-25T11:32:02.286Z,95360.78
2023-11-25T11:34:31.913Z,95352.41
2023-11-25T11:36:59.714Z,95351.63
2023-11-25T11:39:37.162Z,95354.75
2023-11-25T11:42:37.522Z,95356.19
2023-11-25T11:45:15.118Z,95359.19
2023-11-25T11:47:45.934Z,95354.13
2023-11-25T11:50:19.272Z,95341.03
2023-11-25T11:53:05.234Z,95355.41
2023-11-25T11:55:54.205Z,95348.97
2023-11-25T11:58:22.687Z,95352.97
2023-11-25T12:00:53.627Z,95351.28
2023-11-25T12:03:21.285Z,95351.91
2023-11-25T12:05:47.874Z,95355.50
2023-11-25T12:08:14.677Z,95357.09
2023-11-25T12:10:41.914Z,95358.38
2023-11-25T12:13:10.091Z,95359.03
2023-11-25T12:15:37.810Z,95364.88
2023-11-25T12:18:06.540Z,95361.88
2023-11-25T12:20:33.422Z,95360.28
2023-11-25T12:23:07.895Z,95355.31
2023-11-25T12:25:36.341Z,95347.78
2023-11-25T12:28:07.816Z,95351.22
2023-11-25T12:30:42.386Z,95354.50
2023-11-25T12:33:11.855Z,95351.47
2023-11-25T12:35:42.379Z,95360.41
2023-11-25T12:38:15.310Z,95354.22
2023-11-25T12:40:46.546Z,95360.53
2023-11-25T12:43:13.856Z,95341.47
2023-11-25T12:45:42.056Z,95348.19
2023-11-25T12:48:13.306Z,95346.28
2023-11-25T12:51:02.375Z,95347.91
2023-11-25T12:53:29.579Z,95343.88
2023-11-25T12:55:58.816Z,95341.72
2023-11-25T12:58:26.614Z,95339.91
2023-11-25T13:01:01.558Z,95345.25
2023-11-25T13:03:35.818Z,95348.00
2023-11-25T13:06:13.187Z,95341.63
2023-11-25T13:08:46.633Z,95341.56
2023-11-25T13:11:19.045Z,95348.31
2023-11-25T13:13:45.949Z,95332.66
2023-11-25T13:16:14.133Z,95337.56
2023-11-25T13:18:50.429Z,95335.47
2023-11-25T13:21:17.198Z,95344.88
2023-11-25T13:23:43.880Z,95345.97
2023-11-25T13:26:10.728Z,95347.66
2023-11-25T13:28:37.924Z,95341.97
2023-11-25T13:31:05.095Z,95350.31
2023-11-25T13:33:31.980Z,95350.56
2023-11-25T13:35:59.145Z,95349.91
2023-11-25T13:38:25.836Z,95354.59
2023-11-25T13:40:52.577Z,95361.28
2023-11-25T13:43:21.580Z,95360.50
2023-11-25T13:45:48.904Z,95353.09
2023-11-25T13:48:17.809Z,95358.47
2023-11-25T13:50:45.035Z,95349.19
2023-11-25T13:53:14.198Z,95342.91
2023-11-25T13:55:49.416Z,95332.00
2023-11-25T13:58:19.173Z,95327.91
2023-11-25T14:00:46.263Z,95323.16
2023-11-25T14:03:15.014Z,95311.38
2023-11-25T14:05:43.795Z,95313.84
2023-11-25T14:08:17.331Z,95309.81
2023-11-25T14:10:44.730Z,95306.91
2023-11-25T14:13:12.489Z,95308.75
2023-11-25T14:15:39.391Z,95302.50
2023-11-25T14:18:09.177Z,95296.94
2023-11-25T14:20:36.303Z,95304.91
2023-11-25T14:23:06.105Z,95293.91
2023-11-25T14:25:33.216Z,95285.69
2023-11-25T14:28:00.291Z,95279.13
2023-11-25T14:30:30.002Z,95270.22
2023-11-25T14:32:56.907Z,95265.41
2023-11-25T14:35:24.192Z,95281.44
2023-11-25T14:37:54.665Z,95284.22
2023-11-25T14:40:24.991Z,95287.50
2023-11-25T14:42:51.973Z,95283.72
2023-11-25T14:45:19.044Z,95283.44
2023-11-25T14:47:46.361Z,95289.28
2023-11-25T14:50:14.163Z,95288.16
2023-11-25T14:52:41.791Z,95291.56
2023-11-25T14:55:09.722Z,95273.53
2023-11-25T14:57:37.654Z,95275.66
2023-11-25T15:00:09.956Z,95286.50
2023-11-25T15:02:38.619Z,95262.88
2023-11-25T15:05:06.188Z,95258.47
2023-11-25T15:07:33.129Z,95255.59
2023-11-25T15:09:59.837Z,95249.97
2023-11-25T15:12:26.546Z,95252.00
2023-11-25T15:14:55.700Z,95235.41
2023-11-25T15:17:24.067Z,95241.22
2023-11-25T15:19:51.050Z,95237.59
2023-11-25T15:22:17.939Z,95243.13
2023-11-25T15:24:44.671Z,95249.28
2023-11-25T15:27:13.793Z,95239.53
2023-11-25T15:29:40.689Z,95239.38
2023-11-25T15:32:07.559Z,95249.28
2023-11-25T15:34:34.754Z,95245.81
2023-11-25T15:37:01.538Z,95244.47
2023-11-25T15:39:28.403Z,95260.03
2023-11-25T15:41:55.491Z,95256.06
2023-11-25T15:44:22.706Z,95256.88
2023-11-25T15:46:50.187Z,95251.09
2023-11-25T15:49:17.312Z,95240.00
2023-11-25T15:51:45.184Z,95241.56
2023-11-25T15:54:12.227Z,95232.03
2023-11-25T15:56:39.579Z,95242.13
2023-11-25T15:59:07.871Z,95231.66
2023-11-25T16:01:35.168Z,95225.22
2023-11-25T16:04:03.284Z,95221.13
2023-11-25T16:06:30.519Z,95220.91
2023-11-25T16:08:58.030Z,95221.25
2023-11-25T16:11:25.554Z,95223.97
2023-11-25T16:13:52.365Z,95220.84
2023-11-25T16:16:19.812Z,95223.59
2023-11-25T16:18:46.538Z,95219.78
2023-11-25T16:21:13.240Z,95203.19
2023-11-25T16:23:41.592Z,95199.94
2023-11-25T16:26:13.323Z,95189.66
2023-11-25T16:28:40.756Z,95193.91
2023-11-25T16:31:10.871Z,95184.97
2023-11-25T16:33:38.499Z,95189.81
2023-11-25T16:36:06.949Z,95187.59
2023-11-25T16:38:35.204Z,95194.31
2023-11-25T16:41:08.254Z,95199.34
2023-11-25T16:43:36.893Z,95190.00
2023-11-25T16:46:05.472Z,95181.69
2023-11-25T16:48:43.578Z,95181.22
2023-11-25T16:51:19.360Z,95187.25
2023-11-25T16:53:47.869Z,95186.38
2023-11-25T16:56:14.902Z,95202.38
2023-11-25T16:58:41.743Z,95192.53
2023-11-25T17:01:08.473Z,95193.13
2023-11-25T17:03:36.277Z,95202.72
2023-11-25T17:06:06.760Z,95188.59
2023-11-25T17:08:33.958Z,95204.56
2023-11-25T17:11:00.799Z,95206.72
2023-11-25T17:13:27.541Z,95203.00
2023-11-25T17:15:54.235Z,95202.09
2023-11-25T17:18:20.924Z,95207.00
2023-11-25T17:20:47.968Z,95204.78
2023-11-25T17:23:14.710Z,95200.66
2023-11-25T17:25:42.122Z,95203.75
2023-11-25T17:28:09.132Z,95200.72
2023-11-25T17:30:36.714Z,95197.03
2023-11-25T17:33:04.260Z,95205.72
2023-11-25T17:35:31.299Z,95207.38
2023-11-25T17:37:58.250Z,95205.22
2023-11-25T17:40:25.188Z,95193.66
2023-11-25T17:42:52.021Z,95205.06
2023-11-25T17:45:18.739Z,95207.13
2023-11-25T17:47:45.622Z,95209.00
2023-11-25T17:50:12.901Z,95218.50
2023-11-25T17:52:39.941Z,95228.44
2023-11-25T17:55:07.213Z,95220.25
2023-11-25T17:57:34.225Z,95220.19
2023-11-25T18:00:01.270Z,95216.63
2023-11-25T18:02:28.222Z,95216.34
2023-11-25T18:04:55.018Z,95208.13
2023-11-25T18:07:21.932Z,95215.50
2023-11-25T18:09:49.018Z,95203.56
2023-11-25T18:12:15.734Z,95201.69
2023-11-25T18:14:42.962Z,95212.06
2023-11-25T18:17:10.651Z,95200.59
2023-11-25T18:19:37.337Z,95195.72
2023-11-25T18:22:04.140Z,95201.50
2023-11-25T18:24:30.813Z,95200.44
2023-11-25T18:26:57.494Z,95202.81
2023-11-25T18:29:24.195Z,95205.13
2023-11-25T18:31:50.873Z,95194.28
2023-11-25T18:34:17.596Z,95197.69
2023-11-25T18:36:44.348Z,95198.78
2023-11-25T18:39:11.210Z,95203.47
2023-11-25T18:41:37.922Z,95201.34
2023-11-25T18:44:05.715Z,95195.88
2023-11-25T18:46:32.942Z,95196.94
2023-11-25T18:49:00.137Z,95197.53
2023-11-25T18:51:27.856Z,95191.03
2023-11-25T18:53:54.416Z,95196.94
2023-11-25T18:56:21.180Z,95190.44
2023-11-25T18:58:48.037Z,95192.66
2023-11-25T19:01:14.966Z,95186.78
2023-11-25T19:03:42.726Z,95181.44
2023-11-25T19:06:09.677Z,95195.41
2023-11-25T19:08:36.404Z,95192.53
2023-11-25T19:11:03.357Z,95193.28
2023-11-25T19:13:30.113Z,95187.03
2023-11-25T19:15:56.777Z,95178.81
2023-11-25T19:18:23.596Z,95195.81
2023-11-25T19:20:50.336Z,95202.31
2023-11-25T19:23:17.060Z,95196.59
2023-11-25T19:25:44.806Z,95202.28
2023-11-25T19:28:11.398Z,95194.69
2023-11-25T19:30:38.069Z,95209.03
2023-11-25T19:33:06.050Z,95210.34
2023-11-25T19:35:32.885Z,95204.84
2023-11-25T19:38:00.925Z,95213.63
2023-11-25T19:40:27.644Z,95199.97
2023-11-25T19:42:54.618Z,95202.47
2023-11-25T19:45:21.959Z,95211.81
2023-11-25T19:47:48.725Z,95214.69
2023-11-25T19:50:15.668Z,95206.88
2023-11-25T19:52:42.502Z,95230.25
2023-11-25T19:55:11.236Z,95217.94
2023-11-25T19:57:38.726Z,95228.66
2023-11-25T20:00:08.039Z,95226.00
2023-11-25T20:02:35.530Z,95239.50
2023-11-25T20:05:02.573Z,95222.81
2023-11-25T20:07:29.541Z,95227.00
2023-11-25T20:09:57.495Z,95240.22
2023-11-25T20:12:24.266Z,95241.69
2023-11-25T20:14:51.702Z,95251.31
2023-11-25T20:17:18.401Z,95251.91
2023-11-25T20:19:49.873Z,95255.16
2023-11-25T20:22:17.545Z,95259.03
2023-11-25T20:24:44.303Z,95261.03
2023-11-25T20:27:11.031Z,95252.63
2023-11-25T20:29:37.742Z,95256.88
2023-11-25T20:32:08.353Z,95254.25
2023-11-25T20:34:35.342Z,95260.13
2023-11-25T20:37:03.091Z,95252.16
2023-11-25T20:39:31.074Z,95251.25
2023-11-25T20:41:58.753Z,95251.81
2023-11-25T20:44:26.160Z,95242.72
2023-11-25T20:46:53.141Z,95254.78
2023-11-25T20:49:20.542Z,95258.06
2023-11-25T20:51:47.267Z,95255.41
2023-11-25T20:54:13.979Z,95257.59
2023-11-25T20:56:40.661Z,95262.47
2023-11-25T20:59:07.365Z,95270.50
2023-11-25T21:01:34.106Z,95280.84
2023-11-25T21:04:00.866Z,95275.94
2023-11-25T21:06:27.724Z,95287.22
2023-11-25T21:08:54.521Z,95280.47
2023-11-25T21:11:21.210Z,95276.16
2023-11-25T21:13:47.979Z,95274.31
2023-11-25T21:16:16.064Z,95271.28
2023-11-25T21:18:43.298Z,95274.97
2023-11-25T21:21:10.171Z,95286.16
2023-11-25T21:23:36.924Z,95288.81
2023-11-25T21:26:04.769Z,95290.41
2023-11-25T21:28:31.564Z,95290.66
2023-11-25T21:30:58.326Z,95293.75
2023-11-25T21:33:25.114Z,95292.38
2023-11-25T21:35:52.327Z,95289.78
2023-11-25T21:38:19.058Z,95295.81
2023-11-25T21:40:46.439Z,95291.44
2023-11-25T21:43:13.326Z,95296.56
2023-11-25T21:45:40.148Z,95292.69
2023-11-25T21:48:06.888Z,95293.50
2023-11-25T21:50:33.713Z,95297.94
2023-11-25T21:53:01.349Z,95294.00
2023-11-25T21:55:28.198Z,95295.19
2023-11-25T21:57:54.869Z,95293.09
2023-11-25T22:00:21.586Z,95298.97
2023-11-25T22:02:48.421Z,95291.00
2023-11-25T22:05:15.722Z,95308.75
2023-11-25T22:07:42.720Z,95310.69
2023-11-25T22:10:21.658Z,95308.13
2023-11-25T22:12:54.476Z,95305.16
2023-11-25T22:15:21.164Z,95316.59
2023-11-25T22:17:48.681Z,95306.34
2023-11-25T22:20:15.674Z,95309.88
2023-11-25T22:22:42.592Z,95319.75
2023-11-25T22:25:13.649Z,95321.88
2023-11-25T22:27:41.399Z,95330.28
2023-11-25T22:30:09.336Z,95333.03
2023-11-25T22:32:36.102Z,95329.25
2023-11-25T22:35:03.525Z,95336.47
2023-11-25T22:37:30.414Z,95344.13
2023-11-25T22:39:57.168Z,95338.56
2023-11-25T22:42:23.911Z,95336.91
2023-11-25T22:44:50.650Z,95341.63
2023-11-25T22:47:17.546Z,95332.56
2023-11-25T22:49:44.300Z,95335.28
2023-11-25T22:52:10.995Z,95324.59
2023-11-25T22:54:38.786Z,95328.75
2023-11-25T22:57:05.476Z,95327.78
2023-11-25T22:59:32.539Z,95325.63
2023-11-25T23:02:02.380Z,95338.34
2023-11-25T23:04:29.321Z,95347.91
2023-11-25T23:06:56.034Z,95339.41
2023-11-25T23:09:22.951Z,95338.59
2023-11-25T23:11:49.662Z,95341.50
2023-11-25T23:14:16.446Z,95345.09
2023-11-25T23:16:43.284Z,95348.84
2023-11-25T23:19:10.018Z,95348.22
2023-11-25T23:21:36.701Z,95343.44
2023-11-25T23:24:03.556Z,95349.41
2023-11-25T23:26:30.407Z,95352.66
2023-11-25T23:28:57.283Z,95361.88
2023-11-25T23:31:23.999Z,95365.88
2023-11-25T23:33:50.708Z,95352.19
2023-11-25T23:36:17.407Z,95363.22
2023-11-25T23:38:44.112Z,95359.72
2023-11-25T23:41:10.879Z,95363.69
2023-11-25T23:43:37.662Z,95375.78
2023-11-25T23:46:04.547Z,95364.47
2023-11-25T23:48:31.815Z,95366.25
2023-11-25T23:50:58.572Z,95363.69
2023-11-25T23:53:25.355Z,95369.38
2023-11-25T23:55:52.099Z,95364.63
2023-11-25T23:58:18.845Z,95359.72
